createdAt,value
2017-05-09T00:00:44.234Z,6.23
2017-05-09T00:03:12.276Z,6.70
2017-05-09T00:05:40.688Z,8.22
2017-05-09T00:08:08.321Z,5.47
2017-05-09T00:10:36.346Z,4.70
2017-05-09T00:13:03.974Z,5.80
2017-05-09T00:15:31.605Z,4.82
2017-05-09T00:17:59.585Z,5.02
2017-05-09T00:20:27.215Z,4.13
2017-05-09T00:22:54.850Z,5.05
2017-05-09T00:25:22.837Z,5.05
2017-05-09T00:27:50.460Z,3.92
2017-05-09T00:30:18.156Z,5.57
2017-05-09T00:32:46.096Z,4.72
2017-05-09T00:35:13.727Z,5.52
2017-05-09T00:37:42.130Z,7.75
2017-05-09T00:40:11.573Z,6.17
2017-05-09T00:42:39.219Z,5.25
2017-05-09T00:45:06.859Z,5.03
2017-05-09T00:47:34.828Z,4.17
2017-05-09T00:50:03.248Z,4.57
2017-05-09T00:52:31.643Z,4.38
2017-05-09T00:54:59.610Z,5.30
2017-05-09T00:57:28.149Z,3.67
2017-05-09T00:59:55.787Z,4.72
2017-05-09T01:02:24.491Z,4.75
2017-05-09T01:04:52.121Z,3.80
2017-05-09T01:07:19.756Z,2.98
2017-05-09T01:09:48.486Z,3.83
2017-05-09T01:12:16.124Z,4.55
2017-05-09T01:14:44.524Z,5.45
2017-05-09T01:17:13.344Z,3.97
2017-05-09T01:19:41.739Z,3.73
2017-05-09T01:22:09.372Z,4.05
2017-05-09T01:24:37.308Z,4.97
2017-05-09T01:27:04.938Z,6.23
2017-05-09T01:29:32.570Z,4.53
2017-05-09T01:32:00.559Z,3.53
2017-05-09T01:34:28.197Z,4.68
2017-05-09T01:36:55.837Z,5.13
2017-05-09T01:39:23.798Z,4.27
2017-05-09T01:41:51.441Z,4.02
2017-05-09T01:44:19.077Z,4.93
2017-05-09T01:46:47.002Z,6.60
2017-05-09T01:49:15.392Z,4.17
2017-05-09T01:51:43.024Z,3.30
2017-05-09T01:54:10.958Z,3.83
2017-05-09T01:56:39.368Z,5.52
2017-05-09T01:59:07.771Z,4.35
2017-05-09T02:01:37.232Z,6.20
2017-05-09T02:04:05.624Z,4.40
2017-05-09T02:06:33.259Z,5.60
2017-05-09T02:09:01.284Z,5.27
2017-05-09T02:11:28.919Z,5.92
2017-05-09T02:13:56.558Z,9.33
2017-05-09T02:16:24.509Z,6.65
2017-05-09T02:18:52.140Z,4.85
2017-05-09T02:21:20.534Z,4.15
2017-05-09T02:23:48.501Z,4.42
2017-05-09T02:26:16.700Z,5.65
2017-05-09T02:28:44.342Z,3.70
2017-05-09T02:31:12.368Z,4.60
2017-05-09T02:33:40.001Z,7.68
2017-05-09T02:36:07.632Z,5.70
2017-05-09T02:38:35.609Z,4.52
2017-05-09T02:41:03.239Z,5.57
2017-05-09T02:43:30.871Z,5.42
2017-05-09T02:45:59.853Z,5.22
2017-05-09T02:48:28.254Z,4.07
2017-05-09T02:50:55.888Z,4.75
2017-05-09T02:53:23.845Z,6.32
2017-05-09T02:55:51.485Z,4.97
2017-05-09T02:58:19.121Z,5.40
2017-05-09T03:00:47.887Z,6.32
2017-05-09T03:03:15.516Z,7.92
2017-05-09T03:05:43.945Z,4.77
2017-05-09T03:08:11.880Z,6.17
2017-05-09T03:10:39.521Z,7.12
2017-05-09T03:13:07.161Z,6.07
2017-05-09T03:15:35.129Z,4.45
2017-05-09T03:18:03.544Z,8.83
2017-05-09T03:20:31.945Z,6.62
2017-05-09T03:22:59.899Z,7.90
2017-05-09T03:25:27.523Z,8.30
2017-05-09T03:27:55.157Z,6.43
2017-05-09T03:30:23.866Z,5.85
2017-05-09T03:32:51.558Z,5.93
2017-05-09T03:35:19.188Z,6.42
2017-05-09T03:37:47.228Z,6.57
2017-05-09T03:40:15.623Z,8.40
2017-05-09T03:42:43.576Z,7.12
2017-05-09T03:45:12.449Z,6.97
2017-05-09T03:47:40.859Z,10.77
2017-05-09T03:50:08.501Z,8.20
2017-05-09T03:52:36.449Z,10.42
2017-05-09T03:55:04.841Z,7.23
2017-05-09T03:57:32.477Z,8.80
2017-05-09T04:00:00.416Z,6.78
2017-05-09T04:02:28.041Z,8.67
2017-05-09T04:04:56.450Z,5.68
2017-05-09T04:07:24.478Z,5.57
2017-05-09T04:09:52.114Z,7.38
2017-05-09T04:12:20.517Z,6.97
2017-05-09T04:14:48.465Z,8.60
2017-05-09T04:17:16.121Z,7.08
2017-05-09T04:19:43.758Z,8.22
2017-05-09T04:22:11.713Z,9.23
2017-05-09T04:24:39.352Z,7.27
2017-05-09T04:27:07.764Z,6.92
2017-05-09T04:29:35.715Z,8.82
2017-05-09T04:32:03.352Z,7.53
2017-05-09T04:34:31.018Z,13.73
2017-05-09T04:36:59.709Z,8.42
2017-05-09T04:39:27.346Z,5.22
2017-05-09T04:41:55.759Z,7.80
2017-05-09T04:44:23.797Z,10.60
2017-05-09T04:46:51.444Z,8.30
2017-05-09T04:49:19.119Z,5.57
2017-05-09T04:51:47.882Z,4.92
2017-05-09T04:54:15.518Z,6.02
2017-05-09T04:56:43.148Z,4.98
2017-05-09T04:59:11.073Z,6.75
2017-05-09T05:01:39.486Z,7.33
2017-05-09T05:04:07.126Z,5.85
2017-05-09T05:06:35.169Z,5.18
2017-05-09T05:09:03.561Z,5.40
2017-05-09T05:11:31.962Z,5.73
2017-05-09T05:14:00.652Z,4.87
2017-05-09T05:16:29.048Z,8.25
2017-05-09T05:18:57.450Z,5.93
2017-05-09T05:21:26.904Z,4.42
2017-05-09T05:23:55.511Z,6.13
2017-05-09T05:26:23.146Z,4.88
2017-05-09T05:28:52.608Z,4.75
2017-05-09T05:31:20.242Z,5.70
2017-05-09T05:33:47.873Z,6.33
2017-05-09T05:36:15.865Z,5.40
2017-05-09T05:38:43.520Z,6.00
2017-05-09T05:41:11.181Z,4.70
2017-05-09T05:43:40.648Z,4.90
2017-05-09T05:46:08.276Z,5.92
2017-05-09T05:48:36.669Z,5.22
2017-05-09T05:51:04.601Z,5.08
2017-05-09T05:53:32.237Z,4.93
2017-05-09T05:55:59.892Z,5.23
2017-05-09T05:58:27.846Z,5.03
2017-05-09T06:00:55.472Z,4.05
2017-05-09T06:03:23.116Z,5.62
2017-05-09T06:05:51.101Z,4.55
2017-05-09T06:08:18.725Z,4.15
2017-05-09T06:10:46.359Z,5.42
2017-05-09T06:13:15.181Z,5.08
2017-05-09T06:15:42.816Z,4.08
2017-05-09T06:18:10.440Z,4.58
2017-05-09T06:20:39.120Z,4.05
2017-05-09T06:23:07.521Z,3.87
2017-05-09T06:25:35.152Z,3.57
2017-05-09T06:28:03.181Z,4.43
2017-05-09T06:30:30.807Z,6.40
2017-05-09T06:32:59.207Z,4.15
2017-05-09T06:35:27.149Z,4.03
2017-05-09T06:37:55.553Z,5.27
2017-05-09T06:40:23.193Z,4.32
2017-05-09T06:42:51.116Z,6.60
2017-05-09T06:45:19.521Z,4.00
2017-05-09T06:47:47.153Z,4.72
2017-05-09T06:50:15.207Z,5.22
2017-05-09T06:52:42.844Z,6.52
2017-05-09T06:55:10.472Z,4.05
2017-05-09T06:57:39.160Z,5.00
2017-05-09T07:00:07.557Z,4.43
2017-05-09T07:02:36.222Z,4.22
2017-05-09T07:05:04.940Z,4.48
2017-05-09T07:07:32.565Z,3.13
2017-05-09T07:10:00.968Z,7.72
2017-05-09T07:12:29.693Z,4.98
2017-05-09T07:14:58.085Z,4.95
2017-05-09T07:17:25.721Z,5.47
2017-05-09T07:19:54.508Z,4.77
2017-05-09T07:22:22.896Z,3.65
2017-05-09T07:24:51.296Z,4.22
2017-05-09T07:27:19.994Z,7.72
2017-05-09T07:29:48.388Z,5.15
2017-05-09T07:32:16.012Z,4.07
2017-05-09T07:34:43.940Z,3.80
2017-05-09T07:37:12.337Z,5.35
2017-05-09T07:39:40.007Z,3.55
2017-05-09T07:42:08.152Z,4.50
2017-05-09T07:44:35.785Z,3.58
2017-05-09T07:47:03.417Z,6.03
2017-05-09T07:49:31.389Z,4.83
2017-05-09T07:51:59.024Z,4.50
2017-05-09T07:54:26.673Z,2.90
2017-05-09T07:56:54.592Z,5.33
2017-05-09T07:59:22.989Z,4.03
2017-05-09T08:01:50.638Z,4.42
2017-05-09T08:04:19.368Z,2.80
2017-05-09T08:06:46.993Z,3.90
2017-05-09T08:09:16.137Z,3.45
2017-05-09T08:11:44.104Z,3.30
2017-05-09T08:14:11.739Z,5.57
2017-05-09T08:16:39.365Z,3.25
2017-05-09T08:19:07.282Z,3.68
2017-05-09T08:21:35.676Z,2.82
2017-05-09T08:24:03.312Z,4.13
2017-05-09T08:26:32.021Z,3.43
2017-05-09T08:28:59.660Z,3.12
2017-05-09T08:31:27.330Z,3.52
2017-05-09T08:33:55.272Z,2.95
2017-05-09T08:36:22.914Z,4.18
2017-05-09T08:38:51.329Z,2.77
2017-05-09T08:41:19.344Z,3.88
2017-05-09T08:43:46.982Z,1.93
2017-05-09T08:46:15.565Z,2.52
2017-05-09T08:48:43.657Z,2.45
2017-05-09T08:51:11.288Z,2.77
2017-05-09T08:53:38.928Z,2.30
2017-05-09T08:56:07.682Z,2.53
2017-05-09T08:58:35.325Z,3.78
2017-05-09T09:01:02.960Z,2.87
2017-05-09T09:03:31.747Z,1.92
2017-05-09T09:06:00.156Z,1.97
2017-05-09T09:08:28.556Z,2.30
2017-05-09T09:10:56.525Z,1.97
2017-05-09T09:13:24.162Z,2.40
2017-05-09T09:15:51.798Z,3.30
2017-05-09T09:18:20.593Z,3.88
2017-05-09T09:20:48.238Z,2.33
2017-05-09T09:23:15.900Z,2.27
2017-05-09T09:25:44.668Z,1.95
2017-05-09T09:28:12.305Z,3.03
2017-05-09T09:30:40.710Z,2.08
2017-05-09T09:33:09.440Z,2.03
2017-05-09T09:35:37.068Z,1.72
2017-05-09T09:38:05.476Z,2.13
2017-05-09T09:40:33.409Z,2.27
2017-05-09T09:43:01.829Z,2.00
2017-05-09T09:45:30.237Z,2.85
2017-05-09T09:47:59.043Z,2.42
2017-05-09T09:50:26.681Z,2.77
2017-05-09T09:52:54.318Z,3.10
2017-05-09T09:55:22.241Z,2.22
2017-05-09T09:57:49.882Z,2.60
2017-05-09T10:00:17.524Z,2.52
2017-05-09T10:02:46.325Z,2.52
2017-05-09T10:05:13.960Z,2.73
2017-05-09T10:07:42.361Z,4.42
2017-05-09T10:10:10.384Z,2.38
2017-05-09T10:12:38.016Z,2.40
2017-05-09T10:15:06.414Z,2.52
2017-05-09T10:17:34.448Z,2.35
2017-05-09T10:20:02.085Z,2.50
2017-05-09T10:22:29.723Z,3.83
2017-05-09T10:24:57.659Z,2.97
2017-05-09T10:27:26.060Z,2.42
2017-05-09T10:29:53.692Z,2.60
2017-05-09T10:32:22.480Z,4.47
2017-05-09T10:34:50.873Z,3.03
2017-05-09T10:37:18.508Z,2.52
2017-05-09T10:39:46.473Z,2.58
2017-05-09T10:42:14.112Z,2.65
2017-05-09T10:44:41.755Z,2.40
2017-05-09T10:47:09.799Z,2.22
2017-05-09T10:49:37.427Z,3.27
2017-05-09T10:52:05.832Z,2.38
2017-05-09T10:54:33.854Z,3.92
2017-05-09T10:57:02.248Z,2.80
2017-05-09T10:59:30.649Z,2.30
2017-05-09T11:01:59.357Z,2.53
2017-05-09T11:04:27.760Z,2.72
2017-05-09T11:06:55.406Z,2.77
2017-05-09T11:09:23.325Z,3.05
2017-05-09T11:11:50.961Z,2.40
2017-05-09T11:14:18.603Z,2.52
2017-05-09T11:16:46.698Z,2.88
2017-05-09T11:19:14.330Z,3.52
2017-05-09T11:21:41.969Z,2.18
2017-05-09T11:24:09.922Z,2.10
2017-05-09T11:26:37.549Z,2.98
2017-05-09T11:29:05.953Z,2.43
2017-05-09T11:31:33.984Z,2.20
2017-05-09T11:34:01.617Z,1.42
2017-05-09T11:36:29.250Z,2.00
2017-05-09T11:38:57.233Z,1.48
2017-05-09T11:41:24.861Z,1.53
2017-05-09T11:43:52.489Z,1.35
2017-05-09T11:46:21.179Z,1.82
2017-05-09T11:48:48.822Z,2.50
2017-05-09T11:51:16.463Z,1.25
2017-05-09T11:53:44.460Z,2.15
2017-05-09T11:56:12.094Z,1.57
2017-05-09T11:58:39.718Z,1.63
2017-05-09T12:01:07.684Z,2.03
2017-05-09T12:03:35.315Z,1.68
2017-05-09T12:06:03.833Z,2.75
2017-05-09T12:08:31.855Z,2.45
2017-05-09T12:11:00.250Z,2.72
2017-05-09T12:13:28.216Z,1.38
2017-05-09T12:15:56.133Z,1.90
2017-05-09T12:18:24.537Z,2.05
2017-05-09T12:20:52.183Z,2.60
2017-05-09T12:23:20.902Z,2.03
2017-05-09T12:25:48.534Z,2.00
2017-05-09T12:28:16.174Z,2.60
2017-05-09T12:30:44.973Z,1.78
2017-05-09T12:33:13.372Z,2.58
2017-05-09T12:35:41.003Z,2.32
2017-05-09T12:38:09.033Z,2.08
2017-05-09T12:40:36.674Z,1.70
2017-05-09T12:43:04.305Z,1.83
2017-05-09T12:45:33.127Z,2.98
2017-05-09T12:48:00.760Z,2.97
2017-05-09T12:50:29.265Z,5.95
2017-05-09T12:52:57.197Z,1.62
2017-05-09T12:55:24.836Z,2.35
2017-05-09T12:57:52.496Z,2.37
2017-05-09T13:00:21.233Z,2.33
2017-05-09T13:02:48.864Z,1.93
2017-05-09T13:05:16.500Z,3.00
2017-05-09T13:07:45.201Z,1.65
2017-05-09T13:10:12.844Z,2.13
2017-05-09T13:12:40.475Z,2.65
2017-05-09T13:15:08.445Z,2.65
2017-05-09T13:17:36.845Z,2.02
2017-05-09T13:20:05.240Z,4.22
2017-05-09T13:22:33.948Z,2.52
2017-05-09T13:25:01.579Z,1.72
2017-05-09T13:27:29.216Z,1.62
2017-05-09T13:29:57.204Z,2.57
2017-05-09T13:32:24.841Z,1.98
2017-05-09T13:34:52.731Z,1.85
2017-05-09T13:37:20.789Z,2.33
2017-05-09T13:39:49.928Z,2.95
2017-05-09T13:42:17.560Z,2.32
2017-05-09T13:44:45.525Z,1.57
2017-05-09T13:47:13.161Z,1.68
2017-05-09T13:49:41.565Z,1.73
2017-05-09T13:52:09.493Z,1.87
2017-05-09T13:54:37.893Z,1.68
2017-05-09T13:57:05.529Z,1.78
2017-05-09T13:59:33.565Z,2.63
2017-05-09T14:02:01.208Z,2.12
2017-05-09T14:04:29.607Z,1.52
2017-05-09T14:06:59.052Z,1.72
2017-05-09T14:09:26.689Z,2.07
2017-05-09T14:11:55.120Z,3.42
2017-05-09T14:14:23.844Z,2.80
2017-05-09T14:16:51.476Z,2.27
2017-05-09T14:19:19.900Z,2.42
2017-05-09T14:21:48.765Z,2.87
2017-05-09T14:24:16.436Z,2.25
2017-05-09T14:26:44.840Z,2.03
2017-05-09T14:29:12.797Z,1.42
2017-05-09T14:31:40.437Z,1.52
2017-05-09T14:34:08.068Z,1.62
2017-05-09T14:36:36.880Z,3.38
2017-05-09T14:39:04.589Z,2.20
2017-05-09T14:41:32.233Z,2.37
2017-05-09T14:44:00.204Z,1.87
2017-05-09T14:46:27.853Z,1.60
2017-05-09T14:48:55.504Z,1.65
2017-05-09T14:51:23.456Z,2.40
2017-05-09T14:53:51.861Z,1.67
2017-05-09T14:56:19.491Z,2.08
2017-05-09T14:58:47.498Z,1.93
2017-05-09T15:01:15.139Z,2.00
2017-05-09T15:03:42.777Z,1.98
2017-05-09T15:06:10.768Z,2.75
2017-05-09T15:08:38.401Z,1.92
2017-05-09T15:11:06.208Z,1.90
2017-05-09T15:13:34.134Z,1.60
2017-05-09T15:16:01.771Z,1.85
2017-05-09T15:18:29.413Z,3.42
2017-05-09T15:20:57.353Z,1.85
2017-05-09T15:23:25.767Z,1.87
2017-05-09T15:25:53.404Z,2.43
2017-05-09T15:28:21.355Z,2.38
2017-05-09T15:30:48.989Z,2.02
2017-05-09T15:33:16.709Z,2.52
2017-05-09T15:35:44.677Z,2.27
2017-05-09T15:38:12.676Z,2.47
2017-05-09T15:40:40.305Z,2.15
2017-05-09T15:43:08.341Z,2.82
2017-05-09T15:45:36.754Z,2.55
2017-05-09T15:48:05.161Z,1.83
2017-05-09T15:50:33.933Z,2.80
2017-05-09T15:53:01.641Z,2.17
2017-05-09T15:55:30.057Z,1.95
2017-05-09T15:57:58.038Z,2.10
2017-05-09T16:00:25.736Z,2.95
2017-05-09T16:02:53.377Z,2.12
2017-05-09T16:05:21.525Z,3.78
2017-05-09T16:07:49.193Z,3.42
2017-05-09T16:10:17.305Z,1.95
2017-05-09T16:12:46.139Z,1.70
2017-05-09T16:15:13.773Z,3.10
2017-05-09T16:17:41.412Z,2.93
2017-05-09T16:20:10.193Z,2.37
2017-05-09T16:22:38.601Z,2.08
2017-05-09T16:25:06.903Z,2.10
2017-05-09T16:27:35.624Z,2.42
2017-05-09T16:30:04.821Z,1.72
2017-05-09T16:32:32.558Z,1.93
2017-05-09T16:35:00.523Z,2.23
2017-05-09T16:37:28.928Z,2.47
2017-05-09T16:39:56.632Z,3.15
2017-05-09T16:42:25.394Z,2.62
2017-05-09T16:44:53.822Z,2.52
2017-05-09T16:47:21.467Z,2.68
2017-05-09T16:49:49.453Z,1.90
2017-05-09T16:52:17.217Z,2.00
2017-05-09T16:54:44.866Z,2.23
2017-05-09T16:57:12.909Z,3.25
2017-05-09T16:59:42.049Z,2.75
2017-05-09T17:02:09.681Z,2.08
2017-05-09T17:04:37.654Z,3.15
2017-05-09T17:07:05.317Z,3.38
2017-05-09T17:09:32.980Z,3.43
2017-05-09T17:12:01.021Z,3.75
2017-05-09T17:14:28.785Z,3.18
2017-05-09T17:16:56.449Z,3.80
2017-05-09T17:19:24.529Z,3.35
2017-05-09T17:21:53.846Z,3.95
2017-05-09T17:24:21.480Z,3.85
2017-05-09T17:26:49.452Z,3.13
2017-05-09T17:29:17.241Z,3.55
2017-05-09T17:31:45.649Z,3.03
2017-05-09T17:34:13.868Z,3.72
2017-05-09T17:36:41.508Z,4.23
2017-05-09T17:39:09.937Z,3.55
2017-05-09T17:41:37.868Z,4.03
2017-05-09T17:44:05.504Z,3.40
2017-05-09T17:46:33.905Z,3.42
2017-05-09T17:49:02.618Z,2.95
2017-05-09T17:51:30.284Z,3.92
2017-05-09T17:53:57.941Z,3.42
2017-05-09T17:56:25.938Z,4.17
2017-05-09T17:58:53.564Z,3.60
2017-05-09T18:01:21.292Z,3.67
2017-05-09T18:03:50.028Z,3.70
2017-05-09T18:06:17.660Z,2.95
2017-05-09T18:08:46.057Z,3.07
2017-05-09T18:11:14.075Z,3.40
2017-05-09T18:13:41.762Z,4.22
2017-05-09T18:16:10.157Z,3.85
2017-05-09T18:18:38.101Z,4.25
2017-05-09T18:21:05.728Z,3.65
2017-05-09T18:23:34.146Z,4.37
2017-05-09T18:26:02.249Z,4.48
2017-05-09T18:28:31.189Z,4.70
2017-05-09T18:30:58.852Z,4.68
2017-05-09T18:33:27.712Z,4.00
2017-05-09T18:35:55.355Z,3.88
2017-05-09T18:38:23.089Z,4.13
2017-05-09T18:40:51.117Z,4.43
2017-05-09T18:43:18.925Z,4.43
2017-05-09T18:45:46.592Z,4.87
2017-05-09T18:48:15.313Z,4.08
2017-05-09T18:50:43.721Z,4.12
2017-05-09T18:53:12.109Z,4.73
2017-05-09T18:55:40.036Z,5.27
2017-05-09T18:58:07.697Z,3.95
2017-05-09T19:00:36.772Z,3.77
2017-05-09T19:03:05.110Z,4.28
2017-05-09T19:05:33.181Z,4.32
2017-05-09T19:08:01.808Z,5.10
2017-05-09T19:10:30.081Z,5.67
2017-05-09T19:12:58.032Z,5.33
2017-05-09T19:15:25.688Z,4.53
2017-05-09T19:17:54.864Z,5.68
2017-05-09T19:20:23.997Z,4.45
2017-05-09T19:22:51.621Z,5.88
2017-05-09T19:25:20.404Z,5.80
2017-05-09T19:27:48.929Z,5.38
2017-05-09T19:30:16.624Z,5.58
2017-05-09T19:32:45.356Z,6.72
2017-05-09T19:35:13.316Z,5.78
2017-05-09T19:37:41.002Z,6.70
2017-05-09T19:40:09.711Z,5.75
2017-05-09T19:42:37.356Z,5.32
2017-05-09T19:45:04.996Z,6.23
2017-05-09T19:47:33.055Z,5.10
2017-05-09T19:50:00.744Z,6.18
2017-05-09T19:52:29.161Z,7.20
2017-05-09T19:54:57.161Z,7.62
2017-05-09T19:57:25.783Z,7.13
2017-05-09T19:59:53.540Z,5.93
2017-05-09T20:02:21.569Z,7.30
2017-05-09T20:04:49.217Z,8.15
2017-05-09T20:07:16.853Z,6.18
2017-05-09T20:09:44.841Z,6.22
2017-05-09T20:12:12.485Z,7.02
2017-05-09T20:14:41.204Z,7.68
2017-05-09T20:17:09.442Z,5.57
2017-05-09T20:19:38.660Z,6.32
2017-05-09T20:22:07.232Z,5.78
2017-05-09T20:24:36.068Z,10.00
2017-05-09T20:27:03.712Z,7.08
2017-05-09T20:29:31.342Z,6.65
2017-05-09T20:31:59.289Z,6.22
2017-05-09T20:34:26.941Z,7.02
2017-05-09T20:36:54.572Z,7.97
2017-05-09T20:39:22.620Z,6.75
2017-05-09T20:41:50.251Z,6.98
2017-05-09T20:44:17.884Z,10.18
2017-05-09T20:46:46.596Z,6.27
2017-05-09T20:49:14.228Z,7.33
2017-05-09T20:51:41.865Z,6.93
2017-05-09T20:54:09.788Z,8.03
2017-05-09T20:56:38.924Z,6.52
2017-05-09T20:59:06.545Z,5.55
2017-05-09T21:01:34.533Z,5.57
2017-05-09T21:04:02.941Z,6.90
2017-05-09T21:06:31.341Z,7.08
2017-05-09T21:08:59.312Z,6.02
2017-05-09T21:11:26.945Z,6.95
2017-05-09T21:13:54.581Z,6.08
2017-05-09T21:16:23.272Z,7.58
2017-05-09T21:18:50.950Z,7.25
2017-05-09T21:21:18.592Z,6.18
2017-05-09T21:23:46.637Z,7.25
2017-05-09T21:26:15.036Z,7.27
2017-05-09T21:28:43.440Z,6.45
2017-05-09T21:31:11.366Z,6.82
2017-05-09T21:33:40.093Z,6.47
2017-05-09T21:36:07.729Z,6.47
2017-05-09T21:38:36.438Z,6.07
2017-05-09T21:41:04.081Z,7.47
2017-05-09T21:43:31.733Z,5.27
2017-05-09T21:46:00.449Z,5.27
2017-05-09T21:48:28.094Z,7.28
2017-05-09T21:50:55.730Z,5.58
2017-05-09T21:53:24.532Z,5.80
2017-05-09T21:55:52.162Z,6.63
2017-05-09T21:58:19.804Z,5.43
2017-05-09T22:00:48.957Z,6.78
2017-05-09T22:03:17.357Z,6.40
2017-05-09T22:05:44.989Z,7.00
2017-05-09T22:08:12.913Z,5.35
2017-05-09T22:10:41.318Z,6.52
2017-05-09T22:13:09.841Z,6.45
2017-05-09T22:15:37.849Z,6.10
2017-05-09T22:18:06.260Z,6.10
2017-05-09T22:20:33.927Z,5.62
2017-05-09T22:23:02.623Z,6.43
2017-05-09T22:25:31.016Z,5.50
2017-05-09T22:27:58.648Z,5.83
2017-05-09T22:30:26.601Z,5.35
2017-05-09T22:32:54.230Z,6.40
2017-05-09T22:35:21.864Z,6.12
2017-05-09T22:37:49.834Z,5.65
2017-05-09T22:40:19.168Z,5.22
2017-05-09T22:42:46.816Z,6.67
2017-05-09T22:45:14.838Z,5.73
2017-05-09T22:47:42.464Z,5.92
2017-05-09T22:50:10.108Z,6.13
2017-05-09T22:52:38.076Z,5.95
2017-05-09T22:55:05.709Z,6.95
2017-05-09T22:57:34.117Z,7.87
2017-05-09T23:00:02.146Z,7.05
2017-05-09T23:02:29.785Z,8.05
2017-05-09T23:04:58.199Z,6.58
2017-05-09T23:07:26.200Z,6.70
2017-05-09T23:09:53.833Z,5.45
2017-05-09T23:12:22.232Z,5.42
2017-05-09T23:14:50.168Z,6.22
2017-05-09T23:17:17.813Z,5.32
2017-05-09T23:19:45.444Z,5.53
2017-05-09T23:22:13.416Z,6.35
2017-05-09T23:24:41.048Z,6.15
2017-05-09T23:27:08.687Z,5.87
2017-05-09T23:29:36.664Z,5.45
2017-05-09T23:32:04.293Z,6.72
2017-05-09T23:34:31.929Z,4.62
2017-05-09T23:36:59.911Z,5.50
2017-05-09T23:39:27.546Z,5.10
2017-05-09T23:41:55.178Z,5.70
2017-05-09T23:44:23.269Z,6.18
2017-05-09T23:46:50.905Z,5.12
2017-05-09T23:49:18.541Z,5.78
2017-05-09T23:51:46.469Z,6.62
2017-05-09T23:54:14.128Z,6.67
2017-05-09T23:56:41.801Z,6.48
2017-05-09T23:59:10.569Z,5.53
